createdAt,value
2022-12-01T00:01:21.059Z,13.62
2022-12-01T00:03:48.253Z,13.52
2022-12-01T00:06:18.010Z,12.67
2022-12-01T00:09:06.156Z,12.93
2022-12-01T00:11:34.767Z,14.70
2022-12-01T00:14:03.920Z,15.63
2022-12-01T00:16:31.780Z,15.23
2022-12-01T00:18:58.914Z,11.67
2022-12-01T00:21:26.832Z,12.37
2022-12-01T00:23:55.962Z,12.10
2022-12-01T00:26:23.819Z,9.93
2022-12-01T00:28:55.668Z,11.12
2022-12-01T00:31:23.285Z,10.67
2022-12-01T00:33:50.749Z,10.20
2022-12-01T00:36:18.013Z,9.90
2022-12-01T00:38:45.223Z,10.55
2022-12-01T00:41:12.076Z,11.15
2022-12-01T00:43:39.893Z,10.60
2022-12-01T00:46:06.949Z,10.52
2022-12-01T00:48:34.025Z,10.45
2022-12-01T00:51:00.934Z,10.80
2022-12-01T00:53:27.702Z,10.25
2022-12-01T00:55:54.724Z,10.80
2022-12-01T00:58:22.283Z,10.07
2022-12-01T01:00:49.817Z,10.10
2022-12-01T01:03:16.886Z,10.02
2022-12-01T01:05:43.952Z,10.38
2022-12-01T01:08:13.777Z,8.97
2022-12-01T01:10:45.765Z,10.07
2022-12-01T01:13:14.159Z,9.23
2022-12-01T01:15:40.995Z,9.75
2022-12-01T01:18:09.716Z,8.90
2022-12-01T01:20:36.522Z,9.53
2022-12-01T01:23:03.444Z,9.18
2022-12-01T01:25:32.332Z,8.73
2022-12-01T01:27:59.247Z,9.80
2022-12-01T01:30:26.194Z,10.15
2022-12-01T01:32:53.024Z,9.47
2022-12-01T01:35:19.971Z,9.88
2022-12-01T01:37:46.749Z,9.68
2022-12-01T01:40:13.672Z,10.23
2022-12-01T01:42:40.395Z,9.80
2022-12-01T01:45:20.773Z,10.53
2022-12-01T01:47:50.252Z,14.00
2022-12-01T01:50:20.503Z,12.50
2022-12-01T01:52:52.061Z,12.43
2022-12-01T01:55:19.596Z,10.38
2022-12-01T01:57:46.896Z,10.30
2022-12-01T02:00:17.197Z,10.07
2022-12-01T02:02:46.753Z,9.68
2022-12-01T02:05:24.538Z,8.82
2022-12-01T02:07:55.340Z,8.38
2022-12-01T02:10:28.478Z,9.10
2022-12-01T02:13:19.954Z,9.20
2022-12-01T02:16:15.797Z,8.95
2022-12-01T02:19:14.883Z,9.15
2022-12-01T02:22:00.116Z,8.98
2022-12-01T02:25:00.199Z,8.33
2022-12-01T02:27:37.857Z,9.02
2022-12-01T02:30:17.967Z,8.93
2022-12-01T02:33:06.278Z,9.13
2022-12-01T02:35:57.799Z,9.57
2022-12-01T02:38:39.587Z,8.73
2022-12-01T02:41:30.290Z,8.48
2022-12-01T02:44:08.103Z,9.52
2022-12-01T02:46:41.813Z,8.95
2022-12-01T02:49:15.655Z,8.43
2022-12-01T02:51:44.898Z,9.57
2022-12-01T02:54:14.948Z,9.13
2022-12-01T02:56:45.078Z,8.18
2022-12-01T02:59:13.625Z,9.85
2022-12-01T03:01:50.855Z,10.10
2022-12-01T03:04:36.110Z,9.77
2022-12-01T03:07:19.736Z,10.00
2022-12-01T03:09:51.249Z,10.18
2022-12-01T03:12:55.099Z,10.07
2022-12-01T03:15:35.922Z,9.80
2022-12-01T03:18:19.883Z,10.13
2022-12-01T03:21:05.733Z,9.90
2022-12-01T03:23:37.649Z,9.93
2022-12-01T03:26:07.641Z,9.80
2022-12-01T03:28:40.186Z,9.82
2022-12-01T03:31:12.122Z,11.17
2022-12-01T03:33:49.748Z,10.13
2022-12-01T03:36:29.364Z,9.98
2022-12-01T03:39:01.342Z,10.82
2022-12-01T03:41:37.493Z,9.93
2022-12-01T03:44:12.223Z,12.83
2022-12-01T03:47:00.529Z,11.88
2022-12-01T03:49:28.314Z,11.93
2022-12-01T03:52:19.746Z,12.25
2022-12-01T03:54:55.777Z,10.77
2022-12-01T03:57:38.369Z,12.00
2022-12-01T04:00:08.522Z,14.80
2022-12-01T04:02:37.453Z,12.88
2022-12-01T04:05:06.235Z,11.65
2022-12-01T04:07:33.070Z,12.50
2022-12-01T04:09:59.926Z,11.17
2022-12-01T04:12:29.647Z,12.00
2022-12-01T04:15:01.270Z,12.57
2022-12-01T04:17:28.837Z,11.98
2022-12-01T04:19:55.877Z,10.68
2022-12-01T04:22:23.459Z,10.37
2022-12-01T04:24:52.166Z,10.68
2022-12-01T04:27:20.036Z,9.77
2022-12-01T04:29:47.261Z,11.27
2022-12-01T04:32:14.536Z,9.93
2022-12-01T04:34:41.333Z,10.53
2022-12-01T04:37:10.039Z,10.73
2022-12-01T04:39:37.068Z,11.15
2022-12-01T04:42:04.649Z,9.93
2022-12-01T04:44:34.765Z,10.77
2022-12-01T04:47:03.514Z,11.47
2022-12-01T04:49:30.741Z,10.85
2022-12-01T04:51:57.586Z,10.93
2022-12-01T04:54:24.773Z,12.20
2022-12-01T04:56:51.767Z,10.52
2022-12-01T04:59:18.677Z,11.17
2022-12-01T05:01:48.010Z,10.40
2022-12-01T05:04:15.585Z,11.77
2022-12-01T05:06:42.905Z,10.70
2022-12-01T05:09:16.905Z,12.48
2022-12-01T05:11:44.498Z,14.07
2022-12-01T05:14:11.264Z,15.90
2022-12-01T05:16:38.447Z,13.15
2022-12-01T05:19:25.240Z,12.48
2022-12-01T05:21:52.229Z,11.30
2022-12-01T05:24:20.827Z,10.17
2022-12-01T05:26:48.111Z,11.52
2022-12-01T05:29:15.308Z,12.07
2022-12-01T05:31:42.167Z,12.32
2022-12-01T05:34:09.459Z,12.20
2022-12-01T05:36:36.562Z,13.47
2022-12-01T05:39:04.516Z,11.75
2022-12-01T05:41:31.288Z,12.15
2022-12-01T05:43:58.235Z,13.30
2022-12-01T05:46:25.116Z,12.02
2022-12-01T05:48:52.318Z,11.83
2022-12-01T05:51:19.146Z,11.12
2022-12-01T05:53:46.064Z,12.50
2022-12-01T05:56:12.910Z,11.80
2022-12-01T05:58:39.812Z,12.57
2022-12-01T06:01:06.966Z,12.43
2022-12-01T06:03:33.790Z,13.75
2022-12-01T06:06:00.971Z,13.10
2022-12-01T06:08:27.823Z,12.30
2022-12-01T06:10:54.832Z,13.00
2022-12-01T06:13:21.779Z,12.70
2022-12-01T06:16:03.869Z,11.82
2022-12-01T06:18:33.453Z,13.07
2022-12-01T06:21:00.942Z,14.27
2022-12-01T06:23:30.609Z,12.93
2022-12-01T06:25:58.772Z,12.27
2022-12-01T06:28:25.575Z,11.35
2022-12-01T06:30:54.515Z,12.02
2022-12-01T06:33:24.773Z,13.05
2022-12-01T06:36:02.456Z,13.00
2022-12-01T06:38:34.085Z,11.27
2022-12-01T06:41:01.231Z,12.27
2022-12-01T06:43:28.648Z,11.43
2022-12-01T06:46:01.298Z,11.12
2022-12-01T06:48:29.664Z,12.20
2022-12-01T06:51:00.561Z,12.43
2022-12-01T06:53:28.650Z,10.85
2022-12-01T06:56:01.046Z,11.75
2022-12-01T06:58:28.437Z,11.63
2022-12-01T07:00:55.709Z,12.82
2022-12-01T07:03:22.610Z,12.57
2022-12-01T07:06:00.446Z,12.27
2022-12-01T07:08:28.828Z,12.18
2022-12-01T07:11:04.491Z,13.68
2022-12-01T07:13:33.819Z,16.80
2022-12-01T07:16:04.802Z,23.03
2022-12-01T07:18:32.360Z,21.52
2022-12-01T07:21:01.489Z,20.73
2022-12-01T07:23:28.510Z,18.40
2022-12-01T07:26:06.778Z,17.33
2022-12-01T07:28:36.443Z,14.90
2022-12-01T07:31:11.382Z,15.45
2022-12-01T07:33:38.559Z,15.43
2022-12-01T07:36:06.379Z,14.02
2022-12-01T07:38:34.771Z,13.38
2022-12-01T07:41:10.185Z,12.90
2022-12-01T07:43:38.224Z,11.55
2022-12-01T07:46:05.378Z,12.52
2022-12-01T07:48:32.296Z,11.18
2022-12-01T07:50:59.060Z,11.55
2022-12-01T07:53:25.783Z,10.57
2022-12-01T07:55:55.700Z,10.95
2022-12-01T07:58:22.493Z,11.63
2022-12-01T08:00:49.327Z,10.70
2022-12-01T08:03:16.352Z,10.40
2022-12-01T08:05:43.150Z,10.50
2022-12-01T08:08:10.143Z,10.63
2022-12-01T08:10:37.592Z,11.23
2022-12-01T08:13:04.517Z,12.93
2022-12-01T08:15:31.345Z,11.95
2022-12-01T08:18:00.979Z,11.57
2022-12-01T08:20:27.928Z,11.30
2022-12-01T08:22:54.742Z,10.70
2022-12-01T08:25:21.538Z,10.02
2022-12-01T08:27:49.238Z,10.23
2022-12-01T08:30:16.122Z,10.10
2022-12-01T08:32:42.927Z,10.45
2022-12-01T08:35:10.281Z,10.55
2022-12-01T08:37:37.042Z,9.63
2022-12-01T08:40:04.425Z,10.05
2022-12-01T08:42:31.259Z,10.93
2022-12-01T08:44:58.015Z,11.95
2022-12-01T08:47:24.910Z,9.38
2022-12-01T08:49:51.755Z,10.70
2022-12-01T08:52:18.608Z,9.65
2022-12-01T08:54:45.425Z,9.70
2022-12-01T08:57:12.330Z,10.45
2022-12-01T08:59:39.194Z,10.35
2022-12-01T09:02:07.343Z,9.55
2022-12-01T09:04:34.111Z,9.13
2022-12-01T09:07:00.912Z,8.70
2022-12-01T09:09:28.747Z,8.13
2022-12-01T09:11:56.043Z,7.62
2022-12-01T09:14:23.768Z,7.95
2022-12-01T09:16:51.496Z,7.30
2022-12-01T09:19:24.203Z,6.93
2022-12-01T09:21:51.829Z,8.07
2022-12-01T09:24:18.564Z,7.75
2022-12-01T09:26:45.360Z,7.50
2022-12-01T09:29:14.310Z,8.00
2022-12-01T09:31:42.718Z,6.70
2022-12-01T09:34:18.544Z,7.75
2022-12-01T09:36:47.153Z,7.97
2022-12-01T09:39:19.231Z,8.05
2022-12-01T09:41:58.482Z,8.57
2022-12-01T09:44:31.582Z,7.60
2022-12-01T09:47:22.471Z,7.35
2022-12-01T09:50:11.184Z,8.13
2022-12-01T09:52:46.476Z,7.37
2022-12-01T09:55:16.131Z,7.20
2022-12-01T09:57:46.773Z,6.87
2022-12-01T10:00:25.475Z,6.85
2022-12-01T10:03:10.449Z,7.15
2022-12-01T10:06:26.250Z,6.93
2022-12-01T10:09:03.140Z,7.40
2022-12-01T10:11:41.009Z,7.47
2022-12-01T10:14:20.040Z,7.50
2022-12-01T10:17:09.532Z,7.20
2022-12-01T10:19:42.931Z,7.82
2022-12-01T10:22:42.829Z,7.25
2022-12-01T10:25:20.829Z,7.93
2022-12-01T10:28:29.083Z,7.43
2022-12-01T10:31:14.631Z,6.80
2022-12-01T10:34:03.062Z,7.82
2022-12-01T10:36:32.561Z,7.62
2022-12-01T10:39:00.179Z,7.43
2022-12-01T10:41:29.969Z,7.75
2022-12-01T10:44:02.493Z,6.80
2022-12-01T10:46:43.421Z,7.20
2022-12-01T10:49:15.995Z,7.72
2022-12-01T10:51:53.416Z,7.50
2022-12-01T10:54:22.106Z,7.53
2022-12-01T10:56:51.006Z,7.72
2022-12-01T10:59:23.920Z,7.43
2022-12-01T11:01:50.891Z,6.35
2022-12-01T11:04:45.613Z,8.27
2022-12-01T11:07:37.045Z,7.37
2022-12-01T11:10:32.937Z,6.90
2022-12-01T11:13:06.367Z,6.70
2022-12-01T11:15:39.824Z,7.80
2022-12-01T11:18:34.951Z,6.50
2022-12-01T11:21:13.038Z,10.80
2022-12-01T11:23:48.274Z,11.02
2022-12-01T11:26:24.976Z,8.38
2022-12-01T11:28:53.245Z,7.43
2022-12-01T11:31:21.913Z,6.50
2022-12-01T11:33:56.745Z,7.53
2022-12-01T11:36:30.086Z,6.30
2022-12-01T11:39:00.678Z,4.90
2022-12-01T11:41:36.490Z,5.10
2022-12-01T11:44:17.178Z,4.47
2022-12-01T11:47:07.740Z,4.20
2022-12-01T11:50:02.291Z,4.60
2022-12-01T11:52:36.435Z,5.00
2022-12-01T11:55:25.114Z,4.70
2022-12-01T11:57:54.714Z,5.17
2022-12-01T12:00:24.937Z,4.85
2022-12-01T12:03:09.782Z,4.87
2022-12-01T12:05:49.904Z,5.40
2022-12-01T12:08:47.996Z,4.75
2022-12-01T12:11:19.611Z,4.10
2022-12-01T12:14:04.699Z,4.90
2022-12-01T12:16:52.901Z,4.50
2022-12-01T12:20:07.282Z,4.32
2022-12-01T12:22:43.600Z,4.70
2022-12-01T12:25:25.588Z,4.63
2022-12-01T12:28:07.983Z,4.25
2022-12-01T12:30:49.271Z,3.62
2022-12-01T12:33:37.465Z,3.83
2022-12-01T12:36:19.281Z,3.83
2022-12-01T12:38:54.839Z,4.80
2022-12-01T12:41:45.472Z,3.90
2022-12-01T12:44:37.231Z,3.75
2022-12-01T12:47:30.585Z,3.65
2022-12-01T12:50:14.775Z,4.22
2022-12-01T12:52:47.043Z,3.80
2022-12-01T12:55:24.683Z,4.05
2022-12-01T12:58:13.031Z,3.60
2022-12-01T13:00:54.174Z,3.53
2022-12-01T13:03:42.633Z,3.53
2022-12-01T13:06:14.671Z,4.13
2022-12-01T13:08:45.487Z,4.03
2022-12-01T13:11:44.199Z,4.10
2022-12-01T13:14:23.005Z,4.22
2022-12-01T13:16:52.568Z,3.60
2022-12-01T13:19:28.786Z,4.40
2022-12-01T13:21:57.049Z,4.50
2022-12-01T13:24:27.642Z,4.15
2022-12-01T13:27:02.001Z,4.10
2022-12-01T13:29:38.383Z,4.40
2022-12-01T13:32:24.329Z,4.10
2022-12-01T13:34:51.278Z,4.53
2022-12-01T13:37:27.662Z,4.00
2022-12-01T13:39:55.636Z,4.50
2022-12-01T13:42:27.036Z,5.07
2022-12-01T13:44:57.389Z,4.13
2022-12-01T13:47:55.818Z,4.18
2022-12-01T13:50:43.051Z,4.00
2022-12-01T13:53:14.616Z,4.00
2022-12-01T13:55:59.784Z,3.90
2022-12-01T13:58:46.101Z,6.53
2022-12-01T14:01:22.887Z,4.15
2022-12-01T14:04:02.622Z,4.60
2022-12-01T14:07:09.716Z,4.85
2022-12-01T14:09:39.753Z,6.03
2022-12-01T14:12:30.290Z,6.00
2022-12-01T14:15:01.647Z,5.78
2022-12-01T14:17:37.804Z,6.62
2022-12-01T14:20:20.748Z,6.60
2022-12-01T14:23:03.135Z,6.05
2022-12-01T14:25:31.720Z,5.97
2022-12-01T14:28:03.246Z,5.72
2022-12-01T14:30:39.084Z,5.68
2022-12-01T14:33:45.039Z,5.25
2022-12-01T14:36:23.958Z,5.03
2022-12-01T14:38:59.669Z,5.57
2022-12-01T14:41:30.349Z,5.78
2022-12-01T14:44:04.051Z,5.50
2022-12-01T14:47:09.876Z,5.57
2022-12-01T14:50:01.184Z,6.10
2022-12-01T14:52:27.871Z,5.53
2022-12-01T14:55:05.064Z,6.12
2022-12-01T14:57:41.614Z,5.65
2022-12-01T15:00:16.605Z,5.30
2022-12-01T15:03:09.002Z,5.10
2022-12-01T15:05:43.454Z,6.90
2022-12-01T15:08:45.754Z,5.50
2022-12-01T15:11:26.632Z,5.82
2022-12-01T15:13:57.626Z,6.57
2022-12-01T15:16:30.586Z,6.72
2022-12-01T15:18:58.070Z,9.10
2022-12-01T15:21:32.233Z,7.62
2022-12-01T15:24:20.128Z,7.12
2022-12-01T15:26:49.397Z,6.65
2022-12-01T15:29:21.385Z,6.10
2022-12-01T15:31:52.358Z,6.50
2022-12-01T15:34:29.784Z,7.75
2022-12-01T15:36:58.255Z,8.10
2022-12-01T15:39:37.308Z,7.30
2022-12-01T15:42:05.105Z,7.32
2022-12-01T15:44:36.754Z,7.93
2022-12-01T15:47:40.854Z,15.10
2022-12-01T15:50:31.272Z,14.13
2022-12-01T15:53:00.979Z,13.75
2022-12-01T15:55:36.230Z,9.63
2022-12-01T15:58:07.888Z,10.03
2022-12-01T16:00:35.249Z,10.02
2022-12-01T16:03:02.509Z,11.82
2022-12-01T16:05:35.593Z,10.63
2022-12-01T16:08:23.677Z,10.13
2022-12-01T16:11:12.266Z,10.77
2022-12-01T16:13:44.290Z,12.05
2022-12-01T16:16:36.294Z,12.18
2022-12-01T16:19:05.967Z,13.02
2022-12-01T16:21:48.159Z,14.90
2022-12-01T16:24:20.039Z,19.07
2022-12-01T16:26:57.407Z,19.15
2022-12-01T16:29:26.783Z,19.40
2022-12-01T16:32:19.344Z,17.50
2022-12-01T16:34:46.554Z,18.42
2022-12-01T16:37:23.944Z,20.37
2022-12-01T16:39:51.170Z,18.55
2022-12-01T16:42:22.832Z,19.08
2022-12-01T16:44:51.612Z,16.62
2022-12-01T16:47:20.736Z,15.15
2022-12-01T16:49:47.749Z,15.00
2022-12-01T16:52:43.034Z,15.80
2022-12-01T16:55:04.313Z,18.12
2022-12-01T16:57:31.171Z,15.63
2022-12-01T16:59:58.112Z,17.35
2022-12-01T17:02:25.336Z,15.90
2022-12-01T17:04:52.537Z,17.17
2022-12-01T17:07:19.917Z,18.42
2022-12-01T17:09:46.819Z,17.70
2022-12-01T17:12:13.520Z,17.67
2022-12-01T17:14:40.295Z,18.20
2022-12-01T17:17:07.444Z,19.35
2022-12-01T17:19:35.595Z,17.77
2022-12-01T17:22:02.415Z,16.08
2022-12-01T17:24:29.139Z,14.20
2022-12-01T17:26:56.254Z,16.57
2022-12-01T17:29:23.425Z,16.65
2022-12-01T17:31:50.680Z,14.52
2022-12-01T17:34:18.136Z,17.08
2022-12-01T17:36:45.625Z,17.12
2022-12-01T17:39:12.651Z,19.00
2022-12-01T17:41:41.004Z,18.62
2022-12-01T17:44:08.072Z,20.55
2022-12-01T17:46:35.345Z,17.35
2022-12-01T17:49:08.908Z,19.00
2022-12-01T17:51:36.810Z,18.90
2022-12-01T17:54:04.096Z,22.30
2022-12-01T17:56:31.088Z,24.12
2022-12-01T17:58:57.864Z,23.98
2022-12-01T18:01:29.947Z,27.20
2022-12-01T18:03:57.985Z,27.50
2022-12-01T18:06:26.068Z,26.00
2022-12-01T18:08:53.666Z,30.08
2022-12-01T18:11:21.094Z,28.67
2022-12-01T18:13:50.545Z,27.60
2022-12-01T18:16:20.574Z,27.20
2022-12-01T18:18:48.165Z,26.52
2022-12-01T18:21:17.853Z,28.48
